createdAt,value
2019-04-11T00:00:23.592Z,5.78
2019-04-11T00:02:53.169Z,5.75
2019-04-11T00:05:22.979Z,5.83
2019-04-11T00:07:52.220Z,6.15
2019-04-11T00:10:21.032Z,5.72
2019-04-11T00:12:51.136Z,5.92
2019-04-11T00:15:20.322Z,5.78
2019-04-11T00:17:50.197Z,5.78
2019-04-11T00:20:20.102Z,5.92
2019-04-11T00:22:49.920Z,5.50
2019-04-11T00:25:19.811Z,6.47
2019-04-11T00:27:48.937Z,6.28
2019-04-11T00:30:18.243Z,5.85
2019-04-11T00:32:46.886Z,6.53
2019-04-11T00:35:15.590Z,6.20
2019-04-11T00:37:45.216Z,6.40
2019-04-11T00:40:15.154Z,5.95
2019-04-11T00:42:45.044Z,6.17
2019-04-11T00:45:15.753Z,6.22
2019-04-11T00:47:44.978Z,6.17
2019-04-11T00:50:14.780Z,6.03
2019-04-11T00:52:43.966Z,5.85
2019-04-11T00:55:13.367Z,6.20
2019-04-11T00:57:43.161Z,5.92
2019-04-11T01:00:13.127Z,6.10
2019-04-11T01:02:43.269Z,6.17
2019-04-11T01:05:12.942Z,5.87
2019-04-11T01:07:42.824Z,6.83
2019-04-11T01:10:12.184Z,6.97
2019-04-11T01:12:40.899Z,6.30
2019-04-11T01:15:11.438Z,6.90
2019-04-11T01:17:41.234Z,6.87
2019-04-11T01:20:11.245Z,6.80
2019-04-11T01:22:40.502Z,7.00
2019-04-11T01:25:10.456Z,6.92
2019-04-11T01:27:39.965Z,7.15
2019-04-11T01:30:11.938Z,6.25
2019-04-11T01:32:40.878Z,7.37
2019-04-11T01:35:09.575Z,6.85
2019-04-11T01:37:39.850Z,7.15
2019-04-11T01:40:09.840Z,7.33
2019-04-11T01:42:39.644Z,7.42
2019-04-11T01:45:09.548Z,6.97
2019-04-11T01:47:46.898Z,7.87
2019-04-11T01:50:17.431Z,7.05
2019-04-11T01:52:46.681Z,6.90
2019-04-11T01:55:16.390Z,7.20
2019-04-11T01:57:45.027Z,7.10
2019-04-11T02:00:17.708Z,7.53
2019-04-11T02:02:56.984Z,7.40
2019-04-11T02:05:27.444Z,7.33
2019-04-11T02:07:56.157Z,7.22
2019-04-11T02:10:24.809Z,7.30
2019-04-11T02:12:53.405Z,7.30
2019-04-11T02:15:24.026Z,7.90
2019-04-11T02:17:52.956Z,7.20
2019-04-11T02:20:21.539Z,7.75
2019-04-11T02:22:52.866Z,8.03
2019-04-11T02:25:24.727Z,7.33
2019-04-11T02:27:53.450Z,7.83
2019-04-11T02:30:22.742Z,7.87
2019-04-11T02:32:53.437Z,7.10
2019-04-11T02:35:23.806Z,7.65
2019-04-11T02:37:54.699Z,7.47
2019-04-11T02:40:24.558Z,7.67
2019-04-11T02:42:54.901Z,7.50
2019-04-11T02:45:36.318Z,7.50
2019-04-11T02:47:56.341Z,8.40
2019-04-11T02:50:26.488Z,7.28
2019-04-11T02:52:56.678Z,7.83
2019-04-11T02:55:25.458Z,7.53
2019-04-11T02:57:54.415Z,7.58
2019-04-11T03:00:24.435Z,8.03
2019-04-11T03:02:53.560Z,7.45
2019-04-11T03:05:22.582Z,7.37
2019-04-11T03:07:51.548Z,7.15
2019-04-11T03:10:21.010Z,7.83
2019-04-11T03:12:50.147Z,8.20
2019-04-11T03:15:32.097Z,7.30
2019-04-11T03:17:54.848Z,7.35
2019-04-11T03:20:28.989Z,7.55
2019-04-11T03:22:57.025Z,7.30
2019-04-11T03:25:22.552Z,8.10
2019-04-11T03:27:51.734Z,8.55
2019-04-11T03:30:34.827Z,7.87
2019-04-11T03:38:18.803Z,8.25
2019-04-11T03:40:43.837Z,8.20
2019-04-11T03:43:08.895Z,8.28
2019-04-11T03:45:47.992Z,7.90
2019-04-11T03:48:10.501Z,7.83
2019-04-11T03:50:30.519Z,8.23
2019-04-11T03:53:00.102Z,8.60
2019-04-11T03:55:30.718Z,8.13
2019-04-11T03:58:01.011Z,7.92
2019-04-11T04:00:35.446Z,7.92
2019-04-11T04:03:01.491Z,7.97
2019-04-11T04:05:36.175Z,8.00
2019-04-11T04:08:03.951Z,8.60
2019-04-11T04:10:34.210Z,8.40
2019-04-11T04:13:04.988Z,8.43
2019-04-11T04:15:51.578Z,8.45
2019-04-11T04:18:23.910Z,8.73
2019-04-11T04:20:57.639Z,8.55
2019-04-11T04:23:29.445Z,7.95
2019-04-11T04:26:00.862Z,8.60
2019-04-11T04:28:29.491Z,8.10
2019-04-11T04:31:00.089Z,8.03
2019-04-11T04:33:30.396Z,8.23
2019-04-11T04:36:00.209Z,8.35
2019-04-11T04:38:29.649Z,9.03
2019-04-11T04:41:09.958Z,8.80
2019-04-11T04:43:31.565Z,8.15
2019-04-11T04:46:17.327Z,8.70
2019-04-11T04:48:32.173Z,8.93
2019-04-11T04:51:07.297Z,8.48
2019-04-11T04:53:32.522Z,8.90
2019-04-11T04:56:02.711Z,8.40
2019-04-11T04:58:31.752Z,8.88
2019-04-11T05:01:01.934Z,8.78
2019-04-11T05:03:32.015Z,8.63
2019-04-11T05:06:03.366Z,8.93
2019-04-11T05:08:32.549Z,8.30
2019-04-11T05:11:02.257Z,9.28
2019-04-11T05:13:32.293Z,9.48
2019-04-11T05:16:08.569Z,8.53
2019-04-11T05:18:32.142Z,8.65
2019-04-11T05:21:01.151Z,8.83
2019-04-11T05:23:29.847Z,9.95
2019-04-11T05:25:59.978Z,9.10
2019-04-11T05:28:29.798Z,10.68
2019-04-11T05:30:58.468Z,8.68
2019-04-11T05:33:27.453Z,9.50
2019-04-11T05:35:56.388Z,9.13
2019-04-11T05:38:25.311Z,8.95
2019-04-11T05:40:54.596Z,9.03
2019-04-11T05:43:28.066Z,9.20
2019-04-11T05:45:55.073Z,9.63
2019-04-11T05:48:32.216Z,9.55
2019-04-11T05:51:00.871Z,8.75
2019-04-11T05:53:32.771Z,9.18
2019-04-11T05:56:07.106Z,9.35
2019-04-11T05:58:36.687Z,8.73
2019-04-11T06:01:14.518Z,8.75
2019-04-11T06:03:45.370Z,8.33
2019-04-11T06:06:16.252Z,8.95
2019-04-11T06:08:46.057Z,9.33
2019-04-11T06:11:22.159Z,8.88
2019-04-11T06:14:07.286Z,8.23
2019-04-11T06:16:43.613Z,8.15
2019-04-11T06:19:12.373Z,8.58
2019-04-11T06:21:42.666Z,8.23
2019-04-11T06:24:25.901Z,10.00
2019-04-11T06:27:02.382Z,8.65
2019-04-11T06:29:32.727Z,8.65
2019-04-11T06:32:03.535Z,9.33
2019-04-11T06:34:43.783Z,8.85
2019-04-11T06:37:19.943Z,9.25
2019-04-11T06:39:53.958Z,9.45
2019-04-11T06:42:31.727Z,10.08
2019-04-11T06:45:04.607Z,9.80
2019-04-11T06:47:37.825Z,9.28
2019-04-11T06:50:19.457Z,9.68
2019-04-11T06:52:48.793Z,8.73
2019-04-11T06:55:22.465Z,9.48
2019-04-11T06:57:52.729Z,9.25
2019-04-11T07:00:21.732Z,9.78
2019-04-11T07:02:52.923Z,10.18
2019-04-11T07:05:22.730Z,9.45
2019-04-11T07:07:53.631Z,9.48
2019-04-11T07:10:24.618Z,8.98
2019-04-11T07:12:55.982Z,9.38
2019-04-11T07:15:27.206Z,8.98
2019-04-11T07:18:14.013Z,9.00
2019-04-11T07:20:45.580Z,9.85
2019-04-11T07:23:32.940Z,9.28
2019-04-11T07:26:04.486Z,9.70
2019-04-11T07:28:35.752Z,9.48
2019-04-11T07:34:12.773Z,9.53
2019-04-11T07:37:00.262Z,8.55
2019-04-11T07:39:35.369Z,9.10
2019-04-11T07:42:07.059Z,9.50
2019-04-11T07:44:38.540Z,9.20
2019-04-11T07:47:17.274Z,8.55
2019-04-11T07:49:43.241Z,9.00
2019-04-11T07:52:20.448Z,8.95
2019-04-11T07:54:49.177Z,8.45
2019-04-11T07:57:31.314Z,8.90
2019-04-11T08:00:17.656Z,8.95
2019-04-11T08:02:50.322Z,9.68
2019-04-11T08:05:36.554Z,8.40
2019-04-11T08:08:23.739Z,8.95
2019-04-11T08:11:09.495Z,9.18
2019-04-11T08:13:40.799Z,9.33
2019-04-11T08:16:11.077Z,8.08
2019-04-11T08:18:41.358Z,8.50
2019-04-11T08:21:28.304Z,8.80
2019-04-11T08:23:58.578Z,9.38
2019-04-11T08:26:34.410Z,9.28
2019-04-11T08:29:09.295Z,8.70
2019-04-11T08:31:36.121Z,8.75
2019-04-11T08:34:04.979Z,8.30
2019-04-11T08:36:35.276Z,8.83
2019-04-11T08:39:06.837Z,8.75
2019-04-11T08:41:49.649Z,8.85
2019-04-11T08:44:19.423Z,8.48
2019-04-11T08:46:51.043Z,9.05
2019-04-11T08:49:29.091Z,8.73
2019-04-11T08:51:59.988Z,9.03
2019-04-11T08:54:47.971Z,9.10
2019-04-11T08:57:18.284Z,8.55
2019-04-11T08:59:57.714Z,8.40
2019-04-11T09:02:26.913Z,8.57
2019-04-11T09:05:13.107Z,8.57
2019-04-11T09:07:51.952Z,8.97
2019-04-11T09:10:40.609Z,8.57
2019-04-11T09:13:44.199Z,8.37
2019-04-11T09:16:17.263Z,9.03
2019-04-11T09:18:46.157Z,8.40
2019-04-11T09:21:16.387Z,8.87
2019-04-11T09:23:45.986Z,8.37
2019-04-11T09:26:34.008Z,9.03
2019-04-11T09:29:03.873Z,8.50
2019-04-11T09:31:34.194Z,9.17
2019-04-11T09:34:11.280Z,8.73
2019-04-11T09:36:41.847Z,9.20
2019-04-11T09:39:28.904Z,8.73
2019-04-11T09:42:14.909Z,8.60
2019-04-11T09:44:48.932Z,9.00
2019-04-11T09:47:36.252Z,8.93
2019-04-11T09:50:08.082Z,8.90
2019-04-11T09:52:45.220Z,8.30
2019-04-11T09:55:24.178Z,8.43
2019-04-11T09:57:58.646Z,9.00
2019-04-11T10:00:30.446Z,9.27
2019-04-11T10:03:00.865Z,8.97
2019-04-11T10:05:50.292Z,9.23
2019-04-11T10:08:37.276Z,8.77
2019-04-11T10:11:10.437Z,9.47
2019-04-11T10:13:57.567Z,9.50
2019-04-11T10:16:28.368Z,9.50
2019-04-11T10:19:05.515Z,9.13
2019-04-11T10:21:39.479Z,10.27
2019-04-11T10:24:22.450Z,9.30
2019-04-11T10:27:12.291Z,10.60
2019-04-11T10:29:42.626Z,9.10
2019-04-11T10:32:12.927Z,10.10
2019-04-11T10:34:59.718Z,10.23
2019-04-11T10:37:28.255Z,10.13
2019-04-11T10:39:59.845Z,9.47
2019-04-11T10:42:28.861Z,10.10
2019-04-11T10:45:15.298Z,10.00
2019-04-11T10:47:45.006Z,9.37
2019-04-11T10:50:15.855Z,10.93
2019-04-11T10:52:46.778Z,10.17
2019-04-11T10:55:19.838Z,10.37
2019-04-11T10:57:52.558Z,10.40
2019-04-11T11:00:23.034Z,10.63
2019-04-11T11:02:56.359Z,9.60
2019-04-11T11:05:30.437Z,10.47
2019-04-11T11:08:04.709Z,10.97
2019-04-11T11:10:35.473Z,11.17
2019-04-11T11:13:09.539Z,10.93
2019-04-11T11:15:39.881Z,9.70
2019-04-11T11:18:53.879Z,10.73
2019-04-11T11:21:00.328Z,10.20
2019-04-11T11:23:45.464Z,9.60
2019-04-11T11:26:22.626Z,10.23
2019-04-11T11:28:56.790Z,9.77
2019-04-11T11:31:39.049Z,10.50
2019-04-11T11:34:15.671Z,10.10
2019-04-11T11:36:47.973Z,8.83
2019-04-11T11:42:22.175Z,10.07
2019-04-11T11:44:59.330Z,9.47
2019-04-11T11:47:46.109Z,10.33
2019-04-11T11:50:20.101Z,10.10
2019-04-11T11:53:07.360Z,9.27
2019-04-11T11:55:39.506Z,9.53
2019-04-11T11:58:25.938Z,9.90
2019-04-11T12:00:57.828Z,9.97
2019-04-11T12:03:35.091Z,10.70
2019-04-11T12:06:09.586Z,9.40
2019-04-11T12:08:50.940Z,9.70
2019-04-11T12:11:19.857Z,9.40
2019-04-11T12:14:07.640Z,8.87
2019-04-11T12:16:43.994Z,8.60
2019-04-11T12:19:17.997Z,9.63
2019-04-11T12:21:47.634Z,9.40
2019-04-11T12:24:34.425Z,9.07
2019-04-11T12:27:16.741Z,9.03
2019-04-11T12:29:50.823Z,8.97
2019-04-11T12:32:30.583Z,9.13
2019-04-11T12:35:02.071Z,9.10
2019-04-11T12:37:45.435Z,9.57
2019-04-11T12:40:32.274Z,9.57
2019-04-11T12:43:02.564Z,8.93
2019-04-11T12:45:35.296Z,8.43
2019-04-11T12:48:04.850Z,8.90
2019-04-11T12:50:35.128Z,9.20
2019-04-11T12:53:05.669Z,9.30
2019-04-11T12:55:36.050Z,8.97
2019-04-11T12:58:21.373Z,8.10
2019-04-11T13:01:07.981Z,8.60
2019-04-11T13:03:50.272Z,8.60
2019-04-11T13:06:35.279Z,8.67
2019-04-11T13:09:01.120Z,9.13
2019-04-11T13:11:31.358Z,8.50
2019-04-11T13:14:19.842Z,8.20
2019-04-11T13:16:50.066Z,9.07
2019-04-11T13:19:20.272Z,8.20
2019-04-11T13:21:53.485Z,8.27
2019-04-11T13:24:23.775Z,9.10
2019-04-11T13:27:10.457Z,8.57
2019-04-11T13:29:40.735Z,8.77
2019-04-11T13:32:27.088Z,9.13
2019-04-11T13:34:57.326Z,8.87
2019-04-11T13:37:43.972Z,9.63
2019-04-11T13:40:17.142Z,8.63
2019-04-11T13:42:59.364Z,8.30
2019-04-11T13:45:29.913Z,9.60
2019-04-11T13:48:16.358Z,8.63
2019-04-11T13:50:45.370Z,9.30
2019-04-11T13:53:31.821Z,7.63
2019-04-11T13:56:00.461Z,8.43
2019-04-11T13:58:30.777Z,8.53
2019-04-11T14:00:59.700Z,8.77
2019-04-11T14:03:47.599Z,8.70
2019-04-11T14:06:19.103Z,9.47
2019-04-11T14:08:49.320Z,9.10
2019-04-11T14:11:19.666Z,8.87
2019-04-11T14:13:48.262Z,8.80
2019-04-11T14:16:24.141Z,8.70
2019-04-11T14:18:54.364Z,9.07
2019-04-11T14:21:24.635Z,8.73
2019-04-11T14:24:11.663Z,8.90
2019-04-11T14:26:42.096Z,9.20
2019-04-11T14:29:24.139Z,9.57
2019-04-11T14:31:54.670Z,9.50
2019-04-11T14:34:41.540Z,9.00
2019-04-11T14:37:11.748Z,8.47
2019-04-11T14:39:42.027Z,9.27
2019-04-11T14:42:21.198Z,9.03
2019-04-11T14:44:51.441Z,9.93
2019-04-11T14:47:27.629Z,9.43
2019-04-11T14:49:58.285Z,9.30
2019-04-11T14:52:34.551Z,9.17
2019-04-11T14:55:03.579Z,9.40
2019-04-11T14:57:53.735Z,8.90
2019-04-11T15:00:26.832Z,8.70
2019-04-11T15:03:12.393Z,9.33
2019-04-11T15:05:48.424Z,8.17
2019-04-11T15:08:21.591Z,8.43
2019-04-11T15:10:57.772Z,7.63
2019-04-11T15:13:28.035Z,7.97
2019-04-11T15:15:58.255Z,8.57
2019-04-11T15:18:27.507Z,8.23
2019-04-11T15:20:57.681Z,8.53
2019-04-11T15:23:27.899Z,8.33
2019-04-11T15:26:14.666Z,8.87
2019-04-11T15:28:47.431Z,7.90
2019-04-11T15:31:20.452Z,8.23
2019-04-11T15:33:50.698Z,8.97
2019-04-11T15:36:20.902Z,8.33
2019-04-11T15:38:51.127Z,8.37
2019-04-11T15:41:19.696Z,6.67
2019-04-11T15:43:49.911Z,8.60
2019-04-11T15:46:20.200Z,7.83
2019-04-11T15:48:53.837Z,8.17
2019-04-11T15:51:24.793Z,8.07
2019-04-11T15:54:11.568Z,8.03
2019-04-11T15:56:44.542Z,8.20
2019-04-11T15:59:14.748Z,7.93
2019-04-11T16:02:01.090Z,7.87
2019-04-11T16:04:31.297Z,8.87
2019-04-11T16:07:11.904Z,7.73
2019-04-11T16:09:42.748Z,7.87
2019-04-11T16:12:18.715Z,7.80
2019-04-11T16:14:52.135Z,8.03
2019-04-11T16:17:38.624Z,7.80
2019-04-11T16:20:08.848Z,8.10
2019-04-11T16:22:55.311Z,8.67
2019-04-11T16:25:28.850Z,8.90
2019-04-11T16:28:07.232Z,8.10
2019-04-11T16:30:39.568Z,8.60
2019-04-11T16:33:09.147Z,8.20
2019-04-11T16:35:41.846Z,8.13
2019-04-11T16:38:19.106Z,7.77
2019-04-11T16:41:05.863Z,7.70
2019-04-11T16:43:34.558Z,7.67
2019-04-11T16:46:07.449Z,7.53
2019-04-11T16:48:36.102Z,7.70
2019-04-11T16:51:05.980Z,7.67
2019-04-11T16:53:34.733Z,7.57
2019-04-11T16:56:03.354Z,8.10
2019-04-11T16:58:32.004Z,8.10
2019-04-11T17:01:00.579Z,8.20
2019-04-11T17:03:29.552Z,8.60
2019-04-11T17:05:59.750Z,9.20
2019-04-11T17:08:36.261Z,7.97
2019-04-11T17:11:09.451Z,8.00
2019-04-11T17:13:38.139Z,8.70
2019-04-11T17:16:08.486Z,8.33
2019-04-11T17:18:37.074Z,8.53
2019-04-11T17:21:07.881Z,8.93
2019-04-11T17:23:36.476Z,8.53
2019-04-11T17:26:06.788Z,8.37
2019-04-11T17:28:35.945Z,8.67
2019-04-11T17:31:04.625Z,8.67
2019-04-11T17:33:33.274Z,8.43
2019-04-11T17:36:02.972Z,8.47
2019-04-11T17:38:31.775Z,8.27
2019-04-11T17:41:00.360Z,7.53
2019-04-11T17:43:28.937Z,7.80
2019-04-11T17:45:57.727Z,8.20
2019-04-11T17:48:26.431Z,7.27
2019-04-11T17:50:55.067Z,8.47
2019-04-11T17:53:24.879Z,8.57
2019-04-11T17:55:54.198Z,8.57
2019-04-11T17:58:26.926Z,9.30
2019-04-11T18:00:55.506Z,8.63
2019-04-11T18:03:24.108Z,8.50
2019-04-11T18:05:52.689Z,8.10
2019-04-11T18:08:21.264Z,8.80
2019-04-11T18:10:50.207Z,8.83
2019-04-11T18:13:18.862Z,7.93
2019-04-11T18:15:47.459Z,8.30
2019-04-11T18:18:16.353Z,8.50
2019-04-11T18:20:45.084Z,8.50
2019-04-11T18:23:13.727Z,8.77
2019-04-11T18:25:42.368Z,8.80
2019-04-11T18:28:11.019Z,8.60
2019-04-11T18:30:39.583Z,7.80
2019-04-11T18:33:08.242Z,9.00
2019-04-11T18:35:36.819Z,8.63
2019-04-11T18:38:05.453Z,8.43
2019-04-11T18:40:34.124Z,9.17
2019-04-11T18:43:02.864Z,8.60
2019-04-11T18:45:31.552Z,8.80
2019-04-11T18:48:00.220Z,8.77
2019-04-11T18:50:29.266Z,8.87
2019-04-11T18:52:59.501Z,8.80
2019-04-11T18:55:28.229Z,9.00
2019-04-11T18:57:56.827Z,8.40
2019-04-11T19:00:26.535Z,8.57
2019-04-11T19:02:55.177Z,9.27
2019-04-11T19:05:28.796Z,8.87
2019-04-11T19:07:54.183Z,9.63
2019-04-11T19:10:22.924Z,8.90
2019-04-11T19:12:51.574Z,8.73
2019-04-11T19:15:20.357Z,8.77
2019-04-11T19:17:49.326Z,8.80
2019-04-11T19:20:19.118Z,9.00
2019-04-11T19:22:48.496Z,8.97
2019-04-11T19:25:17.539Z,8.90
2019-04-11T19:27:49.998Z,9.33
2019-04-11T19:30:16.523Z,9.77
2019-04-11T19:32:45.180Z,9.63
2019-04-11T19:35:13.825Z,9.13
2019-04-11T19:37:42.754Z,9.20
2019-04-11T19:40:16.124Z,9.60
2019-04-11T19:42:42.410Z,10.10
2019-04-11T19:45:11.116Z,10.27
2019-04-11T19:47:39.694Z,9.40
2019-04-11T19:50:08.778Z,10.47
2019-04-11T19:52:45.256Z,9.60
2019-04-11T19:55:19.330Z,9.63
2019-04-11T19:57:48.033Z,10.33
2019-04-11T20:00:16.714Z,10.20
2019-04-11T20:02:45.316Z,9.13
2019-04-11T20:05:13.967Z,9.63
2019-04-11T20:07:42.606Z,10.43
2019-04-11T20:10:11.326Z,10.17
2019-04-11T20:12:39.900Z,10.07
2019-04-11T20:15:08.905Z,8.50
2019-04-11T20:17:44.363Z,10.13
2019-04-11T20:20:08.530Z,10.45
2019-04-11T20:22:39.683Z,10.80
2019-04-11T20:25:07.482Z,9.00
2019-04-11T20:27:36.507Z,9.63
2019-04-11T20:30:08.485Z,9.93
2019-04-11T20:32:37.456Z,9.27
2019-04-11T20:35:09.507Z,10.00
2019-04-11T20:37:39.566Z,9.60
2019-04-11T20:40:07.987Z,9.77
2019-04-11T20:42:36.631Z,10.20
2019-04-11T20:45:07.217Z,10.23
2019-04-11T20:47:35.885Z,10.50
2019-04-11T20:50:07.555Z,11.00
2019-04-11T20:52:36.281Z,10.20
2019-04-11T20:55:08.904Z,10.03
2019-04-11T20:57:36.845Z,10.32
2019-04-11T21:00:12.102Z,9.87
2019-04-11T21:02:38.833Z,10.72
2019-04-11T21:05:07.500Z,10.25
2019-04-11T21:07:36.083Z,10.43
2019-04-11T21:10:05.938Z,10.40
2019-04-11T21:12:36.974Z,12.78
2019-04-11T21:15:07.363Z,10.50
2019-04-11T21:17:35.889Z,11.43
2019-04-11T21:20:07.187Z,10.80
2019-04-11T21:22:35.849Z,10.80
2019-04-11T21:25:06.070Z,11.03
2019-04-11T21:27:34.784Z,11.30
2019-04-11T21:30:04.061Z,11.00
2019-04-11T21:32:32.813Z,11.30
2019-04-11T21:35:02.381Z,11.20
2019-04-11T21:37:31.577Z,10.68
2019-04-11T21:40:00.523Z,11.80
2019-04-11T21:42:29.088Z,12.43
2019-04-11T21:44:57.696Z,11.30
2019-04-11T21:47:26.680Z,12.30
2019-04-11T21:49:55.273Z,11.68
2019-04-11T21:52:24.132Z,13.00
2019-04-11T21:54:52.862Z,12.25
2019-04-11T21:57:22.093Z,11.45
2019-04-11T21:59:52.146Z,11.80
2019-04-11T22:02:24.034Z,11.85
2019-04-11T22:04:51.335Z,12.37
2019-04-11T22:07:19.909Z,12.25
2019-04-11T22:09:48.632Z,13.18
2019-04-11T22:12:17.358Z,11.48
2019-04-11T22:14:46.004Z,12.28
2019-04-11T22:17:15.940Z,12.18
2019-04-11T22:19:45.892Z,12.37
2019-04-11T22:22:15.027Z,12.45
2019-04-11T22:24:44.965Z,12.27
2019-04-11T22:27:13.619Z,12.25
2019-04-11T22:29:42.498Z,13.25
2019-04-11T22:32:11.244Z,13.98
2019-04-11T22:34:41.595Z,14.30
2019-04-11T22:37:10.276Z,14.00
2019-04-11T22:39:38.994Z,13.62
2019-04-11T22:42:07.998Z,13.18
2019-04-11T22:44:38.082Z,12.85
2019-04-11T22:47:08.117Z,14.07
2019-04-11T22:49:39.371Z,12.68
2019-04-11T22:52:07.534Z,13.43
2019-04-11T22:54:36.590Z,13.88
2019-04-11T22:57:05.188Z,13.55
2019-04-11T22:59:33.786Z,13.68
2019-04-11T23:02:16.877Z,13.45
2019-04-11T23:04:46.942Z,13.95
2019-04-11T23:07:15.047Z,13.62
2019-04-11T23:09:43.886Z,13.88
2019-04-11T23:12:12.755Z,13.75
2019-04-11T23:14:45.589Z,12.90
2019-04-11T23:17:14.184Z,13.72
2019-04-11T23:19:44.090Z,12.90
2019-04-11T23:22:13.359Z,13.30
2019-04-11T23:24:42.012Z,13.85
2019-04-11T23:27:10.947Z,13.70
2019-04-11T23:29:39.510Z,13.55
2019-04-11T23:32:08.311Z,13.83
2019-04-11T23:34:36.871Z,13.38
2019-04-11T23:37:05.573Z,13.05
2019-04-11T23:39:34.480Z,13.00
2019-04-11T23:42:03.209Z,12.75
2019-04-11T23:44:31.794Z,12.95
2019-04-11T23:47:00.323Z,12.85
2019-04-11T23:49:28.897Z,12.63
2019-04-11T23:51:57.510Z,13.30
2019-04-11T23:54:28.937Z,12.78
2019-04-11T23:56:56.383Z,13.05
2019-04-11T23:59:24.940Z,13.15
